sensor_id;sensor_type;location;lat;lon;timestamp;temperature;humidity
2749;DHT22;1382;52.142;11.618;2024-03-06T00:11:59;9.30;55.00
2749;DHT22;1382;52.142;11.618;2024-03-06T00:18:35;9.20;54.80
2749;DHT22;1382;52.142;11.618;2024-03-06T00:21:37;9.40;55.00
2749;DHT22;1382;52.142;11.618;2024-03-06T00:24:52;9.20;54.90
2749;DHT22;1382;52.142;11.618;2024-03-06T00:28:08;9.20;54.90
2749;DHT22;1382;52.142;11.618;2024-03-06T00:32:00;9.20;55.00
2749;DHT22;1382;52.142;11.618;2024-03-06T00:35:07;9.20;55.00
2749;DHT22;1382;52.142;11.618;2024-03-06T00:38:17;9.20;54.90
2749;DHT22;1382;52.142;11.618;2024-03-06T00:48:52;9.20;55.10
2749;DHT22;1382;52.142;11.618;2024-03-06T00:51:49;9.10;55.00
2749;DHT22;1382;52.142;11.618;2024-03-06T00:54:40;9.20;55.20
2749;DHT22;1382;52.142;11.618;2024-03-06T00:57:52;8.90;55.00
2749;DHT22;1382;52.142;11.618;2024-03-06T01:00:39;9.10;55.00
2749;DHT22;1382;52.142;11.618;2024-03-06T01:03:31;9.20;55.30
2749;DHT22;1382;52.142;11.618;2024-03-06T01:06:52;9.10;54.90
2749;DHT22;1382;52.142;11.618;2024-03-06T01:10:16;9.10;55.50
2749;DHT22;1382;52.142;11.618;2024-03-06T01:12:58;9.00;55.00
2749;DHT22;1382;52.142;11.618;2024-03-06T01:19:04;9.00;55.00
2749;DHT22;1382;52.142;11.618;2024-03-06T01:22:23;9.00;55.10
2749;DHT22;1382;52.142;11.618;2024-03-06T01:29:32;9.20;55.90
2749;DHT22;1382;52.142;11.618;2024-03-06T01:38:41;8.90;56.20
2749;DHT22;1382;52.142;11.618;2024-03-06T01:41:51;8.70;56.00
2749;DHT22;1382;52.142;11.618;2024-03-06T01:45:14;8.90;55.90
2749;DHT22;1382;52.142;11.618;2024-03-06T01:48:21;9.10;56.00
2749;DHT22;1382;52.142;11.618;2024-03-06T01:51:36;8.70;55.90
2749;DHT22;1382;52.142;11.618;2024-03-06T01:58:20;8.70;55.80
2749;DHT22;1382;52.142;11.618;2024-03-06T02:02:43;8.80;55.90
2749;DHT22;1382;52.142;11.618;2024-03-06T02:04:45;8.80;55.90
2749;DHT22;1382;52.142;11.618;2024-03-06T02:08:11;8.80;55.80
2749;DHT22;1382;52.142;11.618;2024-03-06T02:11:29;8.80;55.70
2749;DHT22;1382;52.142;11.618;2024-03-06T02:14:20;8.80;55.70
2749;DHT22;1382;52.142;11.618;2024-03-06T02:24:17;8.70;55.30
2749;DHT22;1382;52.142;11.618;2024-03-06T02:27:29;8.60;55.90
2749;DHT22;1382;52.142;11.618;2024-03-06T02:30:41;8.70;55.30
2749;DHT22;1382;52.142;11.618;2024-03-06T02:34:40;8.50;55.10
2749;DHT22;1382;52.142;11.618;2024-03-06T02:36:43;8.80;55.50
2749;DHT22;1382;52.142;11.618;2024-03-06T02:43:02;8.60;55.10
2749;DHT22;1382;52.142;11.618;2024-03-06T02:45:45;8.70;55.30
2749;DHT22;1382;52.142;11.618;2024-03-06T02:48:46;8.80;55.40
2749;DHT22;1382;52.142;11.618;2024-03-06T02:52:19;8.70;55.10
2749;DHT22;1382;52.142;11.618;2024-03-06T02:58:18;8.50;55.30
2749;DHT22;1382;52.142;11.618;2024-03-06T03:01:21;8.70;55.40
2749;DHT22;1382;52.142;11.618;2024-03-06T03:04:30;8.70;55.30
2749;DHT22;1382;52.142;11.618;2024-03-06T03:07:59;8.70;55.40
2749;DHT22;1382;52.142;11.618;2024-03-06T03:10:42;8.60;55.20
2749;DHT22;1382;52.142;11.618;2024-03-06T03:13:22;8.60;55.40
2749;DHT22;1382;52.142;11.618;2024-03-06T03:16:24;8.50;55.20
2749;DHT22;1382;52.142;11.618;2024-03-06T03:19:18;8.60;55.10
2749;DHT22;1382;52.142;11.618;2024-03-06T03:22:52;8.60;55.30
2749;DHT22;1382;52.142;11.618;2024-03-06T03:29:22;8.30;55.10
2749;DHT22;1382;52.142;11.618;2024-03-06T03:32:42;8.50;55.30
2749;DHT22;1382;52.142;11.618;2024-03-06T03:35:41;8.40;55.20
2749;DHT22;1382;52.142;11.618;2024-03-06T03:38:46;8.40;55.30
2749;DHT22;1382;52.142;11.618;2024-03-06T03:45:01;8.20;55.10
2749;DHT22;1382;52.142;11.618;2024-03-06T03:48:36;8.60;55.40
2749;DHT22;1382;52.142;11.618;2024-03-06T03:54:35;8.30;55.10
2749;DHT22;1382;52.142;11.618;2024-03-06T03:57:36;8.50;55.30
2749;DHT22;1382;52.142;11.618;2024-03-06T04:07:23;8.40;55.10
2749;DHT22;1382;52.142;11.618;2024-03-06T04:10:04;8.40;55.20
2749;DHT22;1382;52.142;11.618;2024-03-06T04:16:41;8.30;55.10
2749;DHT22;1382;52.142;11.618;2024-03-06T04:19:37;8.40;55.10
2749;DHT22;1382;52.142;11.618;2024-03-06T04:26:29;8.40;55.00
2749;DHT22;1382;52.142;11.618;2024-03-06T04:32:43;8.30;55.10
2749;DHT22;1382;52.142;11.618;2024-03-06T04:37:30;8.40;55.20
2749;DHT22;1382;52.142;11.618;2024-03-06T04:42:45;8.20;55.00
2749;DHT22;1382;52.142;11.618;2024-03-06T04:45:09;8.20;55.00
2749;DHT22;1382;52.142;11.618;2024-03-06T04:48:15;8.20;55.00
2749;DHT22;1382;52.142;11.618;2024-03-06T04:51:16;8.20;54.90
2749;DHT22;1382;52.142;11.618;2024-03-06T04:54:21;8.10;54.90
2749;DHT22;1382;52.142;11.618;2024-03-06T04:57:45;8.10;54.90
2749;DHT22;1382;52.142;11.618;2024-03-06T05:00:40;8.20;55.00
2749;DHT22;1382;52.142;11.618;2024-03-06T05:07:37;8.00;54.90
2749;DHT22;1382;52.142;11.618;2024-03-06T05:10:40;8.00;55.20
2749;DHT22;1382;52.142;11.618;2024-03-06T05:20:58;7.70;55.00
2749;DHT22;1382;52.142;11.618;2024-03-06T05:26:55;7.80;55.10
2749;DHT22;1382;52.142;11.618;2024-03-06T05:30:16;7.70;55.20
2749;DHT22;1382;52.142;11.618;2024-03-06T05:33:19;7.90;55.10
2749;DHT22;1382;52.142;11.618;2024-03-06T05:36:15;7.70;55.20
2749;DHT22;1382;52.142;11.618;2024-03-06T05:39:14;7.50;55.00
2749;DHT22;1382;52.142;11.618;2024-03-06T05:42:21;7.70;55.10
2749;DHT22;1382;52.142;11.618;2024-03-06T05:45:44;7.80;55.20
2749;DHT22;1382;52.142;11.618;2024-03-06T05:48:50;7.80;55.10
2749;DHT22;1382;52.142;11.618;2024-03-06T05:51:35;7.60;55.10
2749;DHT22;1382;52.142;11.618;2024-03-06T05:54:19;7.50;55.10
2749;DHT22;1382;52.142;11.618;2024-03-06T05:57:04;7.50;55.00
2749;DHT22;1382;52.142;11.618;2024-03-06T05:59:48;7.50;55.00
2749;DHT22;1382;52.142;11.618;2024-03-06T06:02:16;7.40;55.00
2749;DHT22;1382;52.142;11.618;2024-03-06T06:04:43;7.40;55.00
2749;DHT22;1382;52.142;11.618;2024-03-06T06:07:25;7.40;55.00
2749;DHT22;1382;52.142;11.618;2024-03-06T06:09:52;7.40;55.00
2749;DHT22;1382;52.142;11.618;2024-03-06T06:12:19;7.40;55.00
2749;DHT22;1382;52.142;11.618;2024-03-06T06:14:52;7.40;55.00
2749;DHT22;1382;52.142;11.618;2024-03-06T06:17:34;7.30;55.10
2749;DHT22;1382;52.142;11.618;2024-03-06T06:20:17;7.30;55.10
2749;DHT22;1382;52.142;11.618;2024-03-06T06:22:53;7.30;55.10
2749;DHT22;1382;52.142;11.618;2024-03-06T06:25:22;7.30;55.20
2749;DHT22;1382;52.142;11.618;2024-03-06T06:27:52;7.30;55.20
2749;DHT22;1382;52.142;11.618;2024-03-06T06:30:19;7.30;55.20
2749;DHT22;1382;52.142;11.618;2024-03-06T06:32:50;7.30;55.90
2749;DHT22;1382;52.142;11.618;2024-03-06T06:35:19;7.30;55.30
2749;DHT22;1382;52.142;11.618;2024-03-06T06:37:46;7.30;55.30
2749;DHT22;1382;52.142;11.618;2024-03-06T06:40:14;7.30;55.30
2749;DHT22;1382;52.142;11.618;2024-03-06T06:42:51;7.30;55.40
2749;DHT22;1382;52.142;11.618;2024-03-06T06:45:32;7.30;55.40
2749;DHT22;1382;52.142;11.618;2024-03-06T06:48:21;7.20;55.30
2749;DHT22;1382;52.142;11.618;2024-03-06T06:50:56;7.30;55.50
2749;DHT22;1382;52.142;11.618;2024-03-06T06:56:34;7.30;55.50
2749;DHT22;1382;52.142;11.618;2024-03-06T06:59:22;7.10;55.40
2749;DHT22;1382;52.142;11.618;2024-03-06T07:01:56;7.40;55.60
2749;DHT22;1382;52.142;11.618;2024-03-06T07:04:43;7.20;55.50
2749;DHT22;1382;52.142;11.618;2024-03-06T07:07:26;7.30;55.50
2749;DHT22;1382;52.142;11.618;2024-03-06T07:10:28;7.30;55.60
2749;DHT22;1382;52.142;11.618;2024-03-06T07:13:11;7.30;55.60
2749;DHT22;1382;52.142;11.618;2024-03-06T07:15:50;7.30;55.70
2749;DHT22;1382;52.142;11.618;2024-03-06T07:18:38;7.30;55.60
2749;DHT22;1382;52.142;11.618;2024-03-06T07:21:49;7.30;55.50
2749;DHT22;1382;52.142;11.618;2024-03-06T07:25:04;7.50;55.80
2749;DHT22;1382;52.142;11.618;2024-03-06T07:27:37;7.40;55.80
2749;DHT22;1382;52.142;11.618;2024-03-06T07:30:32;7.20;55.70
2749;DHT22;1382;52.142;11.618;2024-03-06T07:33:24;7.40;55.80
2749;DHT22;1382;52.142;11.618;2024-03-06T07:36:01;7.50;55.80
2749;DHT22;1382;52.142;11.618;2024-03-06T07:39:40;7.40;55.80
2749;DHT22;1382;52.142;11.618;2024-03-06T07:42:07;7.50;55.70
2749;DHT22;1382;52.142;11.618;2024-03-06T07:44:53;7.50;55.80
2749;DHT22;1382;52.142;11.618;2024-03-06T07:47:54;7.60;55.80
2749;DHT22;1382;52.142;11.618;2024-03-06T07:50:39;7.60;55.80
2749;DHT22;1382;52.142;11.618;2024-03-06T07:53:11;7.60;55.80
2749;DHT22;1382;52.142;11.618;2024-03-06T07:55:46;7.90;56.00
2749;DHT22;1382;52.142;11.618;2024-03-06T07:58:16;7.70;55.70
2749;DHT22;1382;52.142;11.618;2024-03-06T08:00:44;7.90;55.90
2749;DHT22;1382;52.142;11.618;2024-03-06T08:03:10;7.80;55.80
2749;DHT22;1382;52.142;11.618;2024-03-06T08:05:37;7.80;55.80
2749;DHT22;1382;52.142;11.618;2024-03-06T08:08:05;7.90;55.90
2749;DHT22;1382;52.142;11.618;2024-03-06T08:10:32;7.90;56.50
2749;DHT22;1382;52.142;11.618;2024-03-06T08:13:00;8.00;55.80
2749;DHT22;1382;52.142;11.618;2024-03-06T08:15:30;8.00;55.80
2749;DHT22;1382;52.142;11.618;2024-03-06T08:18:00;8.10;55.80
2749;DHT22;1382;52.142;11.618;2024-03-06T08:20:32;8.10;55.90
2749;DHT22;1382;52.142;11.618;2024-03-06T08:23:04;8.20;55.90
2749;DHT22;1382;52.142;11.618;2024-03-06T08:25:38;8.40;56.10
2749;DHT22;1382;52.142;11.618;2024-03-06T08:28:25;8.30;56.00
2749;DHT22;1382;52.142;11.618;2024-03-06T08:31:05;8.40;56.50
2749;DHT22;1382;52.142;11.618;2024-03-06T08:33:40;8.40;56.30
2749;DHT22;1382;52.142;11.618;2024-03-06T08:36:20;8.50;56.40
2749;DHT22;1382;52.142;11.618;2024-03-06T08:38:55;8.50;56.50
2749;DHT22;1382;52.142;11.618;2024-03-06T08:41:25;8.40;56.30
2749;DHT22;1382;52.142;11.618;2024-03-06T08:43:56;8.70;56.70
2749;DHT22;1382;52.142;11.618;2024-03-06T08:46:27;8.80;56.60
2749;DHT22;1382;52.142;11.618;2024-03-06T08:49:11;8.80;56.80
2749;DHT22;1382;52.142;11.618;2024-03-06T08:51:40;9.00;57.50
2749;DHT22;1382;52.142;11.618;2024-03-06T08:54:10;9.00;56.80
2749;DHT22;1382;52.142;11.618;2024-03-06T08:56:49;9.20;56.90
2749;DHT22;1382;52.142;11.618;2024-03-06T08:59:19;9.20;56.80
2749;DHT22;1382;52.142;11.618;2024-03-06T09:01:54;9.10;56.90
2749;DHT22;1382;52.142;11.618;2024-03-06T09:04:33;9.30;56.70
2749;DHT22;1382;52.142;11.618;2024-03-06T09:07:07;9.40;57.20
2749;DHT22;1382;52.142;11.618;2024-03-06T09:09:44;9.50;57.20
2749;DHT22;1382;52.142;11.618;2024-03-06T09:12:14;9.70;57.90
2749;DHT22;1382;52.142;11.618;2024-03-06T09:14:47;9.80;58.10
2749;DHT22;1382;52.142;11.618;2024-03-06T09:17:19;9.80;57.30
2749;DHT22;1382;52.142;11.618;2024-03-06T09:19:58;9.90;57.50
2749;DHT22;1382;52.142;11.618;2024-03-06T09:22:46;9.90;57.10
2749;DHT22;1382;52.142;11.618;2024-03-06T09:25:31;10.00;56.00
2749;DHT22;1382;52.142;11.618;2024-03-06T09:31:40;10.20;56.70
2749;DHT22;1382;52.142;11.618;2024-03-06T09:34:08;10.50;57.20
2749;DHT22;1382;52.142;11.618;2024-03-06T09:36:35;10.30;56.80
2749;DHT22;1382;52.142;11.618;2024-03-06T09:39:27;10.60;57.10
2749;DHT22;1382;52.142;11.618;2024-03-06T09:42:08;10.70;56.80
2749;DHT22;1382;52.142;11.618;2024-03-06T09:44:51;10.90;57.10
2749;DHT22;1382;52.142;11.618;2024-03-06T09:47:28;10.90;57.30
2749;DHT22;1382;52.142;11.618;2024-03-06T09:49:59;10.90;57.40
2749;DHT22;1382;52.142;11.618;2024-03-06T09:52:30;11.10;57.70
2749;DHT22;1382;52.142;11.618;2024-03-06T09:55:11;11.20;57.40
2749;DHT22;1382;52.142;11.618;2024-03-06T09:57:58;11.30;57.70
2749;DHT22;1382;52.142;11.618;2024-03-06T10:00:28;11.20;57.50
2749;DHT22;1382;52.142;11.618;2024-03-06T10:03:19;11.50;57.50
2749;DHT22;1382;52.142;11.618;2024-03-06T10:05:51;11.70;57.40
2749;DHT22;1382;52.142;11.618;2024-03-06T10:08:29;11.70;57.20
2749;DHT22;1382;52.142;11.618;2024-03-06T10:11:08;11.90;57.60
2749;DHT22;1382;52.142;11.618;2024-03-06T10:13:42;12.10;58.10
2749;DHT22;1382;52.142;11.618;2024-03-06T10:16:24;12.10;57.40
2749;DHT22;1382;52.142;11.618;2024-03-06T10:19:27;12.20;57.40
2749;DHT22;1382;52.142;11.618;2024-03-06T10:22:18;12.20;57.00
2749;DHT22;1382;52.142;11.618;2024-03-06T10:24:59;12.50;57.30
2749;DHT22;1382;52.142;11.618;2024-03-06T10:27:29;12.70;56.80
2749;DHT22;1382;52.142;11.618;2024-03-06T10:30:13;12.60;57.10
2749;DHT22;1382;52.142;11.618;2024-03-06T10:32:57;12.80;58.30
2749;DHT22;1382;52.142;11.618;2024-03-06T10:35:35;13.00;57.50
2749;DHT22;1382;52.142;11.618;2024-03-06T10:38:10;13.00;57.90
2749;DHT22;1382;52.142;11.618;2024-03-06T10:40:53;13.20;58.20
2749;DHT22;1382;52.142;11.618;2024-03-06T10:43:32;13.10;57.90
2749;DHT22;1382;52.142;11.618;2024-03-06T10:46:20;13.30;58.20
2749;DHT22;1382;52.142;11.618;2024-03-06T10:48:57;13.50;58.20
2749;DHT22;1382;52.142;11.618;2024-03-06T10:51:45;13.50;58.40
2749;DHT22;1382;52.142;11.618;2024-03-06T10:54:23;13.50;57.10
2749;DHT22;1382;52.142;11.618;2024-03-06T10:57:04;13.60;55.80
2749;DHT22;1382;52.142;11.618;2024-03-06T11:00:09;13.70;57.60
2749;DHT22;1382;52.142;11.618;2024-03-06T11:03:03;14.00;57.40
2749;DHT22;1382;52.142;11.618;2024-03-06T11:05:46;14.00;57.80
2749;DHT22;1382;52.142;11.618;2024-03-06T11:08:31;14.10;57.80
2749;DHT22;1382;52.142;11.618;2024-03-06T11:11:29;14.40;57.20
2749;DHT22;1382;52.142;11.618;2024-03-06T11:14:14;14.20;57.70
2749;DHT22;1382;52.142;11.618;2024-03-06T11:17:04;14.50;57.80
2749;DHT22;1382;52.142;11.618;2024-03-06T11:20:15;14.50;56.80
2749;DHT22;1382;52.142;11.618;2024-03-06T11:23:11;14.60;55.40
2749;DHT22;1382;52.142;11.618;2024-03-06T11:26:05;14.70;54.60
2749;DHT22;1382;52.142;11.618;2024-03-06T11:28:48;14.70;53.30
2749;DHT22;1382;52.142;11.618;2024-03-06T11:31:34;14.80;56.50
2749;DHT22;1382;52.142;11.618;2024-03-06T11:34:14;14.90;54.30
2749;DHT22;1382;52.142;11.618;2024-03-06T11:37:49;15.00;56.60
2749;DHT22;1382;52.142;11.618;2024-03-06T11:42:55;15.10;57.70
2749;DHT22;1382;52.142;11.618;2024-03-06T11:45:46;15.30;57.70
2749;DHT22;1382;52.142;11.618;2024-03-06T11:48:37;15.20;56.90
2749;DHT22;1382;52.142;11.618;2024-03-06T11:51:21;15.50;55.70
2749;DHT22;1382;52.142;11.618;2024-03-06T11:54:07;15.40;55.30
2749;DHT22;1382;52.142;11.618;2024-03-06T11:56:45;15.60;56.40
2749;DHT22;1382;52.142;11.618;2024-03-06T11:59:26;15.70;57.00
2749;DHT22;1382;52.142;11.618;2024-03-06T12:02:12;15.70;52.00
2749;DHT22;1382;52.142;11.618;2024-03-06T12:05:15;15.90;54.00
2749;DHT22;1382;52.142;11.618;2024-03-06T12:08:09;15.70;56.30
2749;DHT22;1382;52.142;11.618;2024-03-06T12:10:49;16.00;57.10
2749;DHT22;1382;52.142;11.618;2024-03-06T12:17:16;16.20;54.60
2749;DHT22;1382;52.142;11.618;2024-03-06T12:19:50;16.20;55.90
2749;DHT22;1382;52.142;11.618;2024-03-06T12:22:19;16.30;57.20
2749;DHT22;1382;52.142;11.618;2024-03-06T12:24:46;16.30;57.80
2749;DHT22;1382;52.142;11.618;2024-03-06T12:27:28;16.30;56.90
2749;DHT22;1382;52.142;11.618;2024-03-06T12:30:12;16.40;53.50
2749;DHT22;1382;52.142;11.618;2024-03-06T12:32:44;16.30;54.40
2749;DHT22;1382;52.142;11.618;2024-03-06T12:35:24;16.50;56.00
2749;DHT22;1382;52.142;11.618;2024-03-06T12:38:19;16.60;56.10
2749;DHT22;1382;52.142;11.618;2024-03-06T12:41:03;16.70;55.90
2749;DHT22;1382;52.142;11.618;2024-03-06T12:43:37;16.70;56.20
2749;DHT22;1382;52.142;11.618;2024-03-06T12:46:06;16.60;55.60
2749;DHT22;1382;52.142;11.618;2024-03-06T12:48:38;16.70;53.90
2749;DHT22;1382;52.142;11.618;2024-03-06T12:51:10;16.80;54.50
2749;DHT22;1382;52.142;11.618;2024-03-06T12:53:40;16.90;53.90
2749;DHT22;1382;52.142;11.618;2024-03-06T12:56:10;16.80;53.60
2749;DHT22;1382;52.142;11.618;2024-03-06T12:58:37;16.90;51.90
2749;DHT22;1382;52.142;11.618;2024-03-06T13:01:07;16.80;51.90
2749;DHT22;1382;52.142;11.618;2024-03-06T13:03:35;16.80;52.10
2749;DHT22;1382;52.142;11.618;2024-03-06T13:06:02;16.90;52.20
2749;DHT22;1382;52.142;11.618;2024-03-06T13:08:30;16.90;52.20
2749;DHT22;1382;52.142;11.618;2024-03-06T13:10:58;16.90;52.40
2749;DHT22;1382;52.142;11.618;2024-03-06T13:13:30;16.90;51.90
2749;DHT22;1382;52.142;11.618;2024-03-06T13:15:57;16.90;51.80
2749;DHT22;1382;52.142;11.618;2024-03-06T13:18:26;16.90;51.60
2749;DHT22;1382;52.142;11.618;2024-03-06T13:20:56;16.90;48.90
2749;DHT22;1382;52.142;11.618;2024-03-06T13:23:23;16.90;50.90
2749;DHT22;1382;52.142;11.618;2024-03-06T13:25:52;16.90;51.20
2749;DHT22;1382;52.142;11.618;2024-03-06T13:28:22;16.90;51.20
2749;DHT22;1382;52.142;11.618;2024-03-06T13:30:49;16.90;50.90
2749;DHT22;1382;52.142;11.618;2024-03-06T13:33:15;16.80;50.50
2749;DHT22;1382;52.142;11.618;2024-03-06T13:35:43;16.90;50.70
2749;DHT22;1382;52.142;11.618;2024-03-06T13:38:11;16.90;50.40
2749;DHT22;1382;52.142;11.618;2024-03-06T13:40:38;16.90;50.80
2749;DHT22;1382;52.142;11.618;2024-03-06T13:43:05;16.90;50.30
2749;DHT22;1382;52.142;11.618;2024-03-06T13:45:32;16.90;49.00
2749;DHT22;1382;52.142;11.618;2024-03-06T13:47:59;16.80;49.90
2749;DHT22;1382;52.142;11.618;2024-03-06T13:50:26;16.90;49.50
2749;DHT22;1382;52.142;11.618;2024-03-06T13:52:53;16.90;49.60
2749;DHT22;1382;52.142;11.618;2024-03-06T13:55:22;16.90;50.30
2749;DHT22;1382;52.142;11.618;2024-03-06T13:57:52;16.90;49.00
2749;DHT22;1382;52.142;11.618;2024-03-06T14:00:19;16.90;50.10
2749;DHT22;1382;52.142;11.618;2024-03-06T14:02:55;17.00;49.80
2749;DHT22;1382;52.142;11.618;2024-03-06T14:05:25;16.90;50.10
2749;DHT22;1382;52.142;11.618;2024-03-06T14:08:00;16.70;49.20
2749;DHT22;1382;52.142;11.618;2024-03-06T14:10:28;16.90;47.20
2749;DHT22;1382;52.142;11.618;2024-03-06T14:12:55;16.90;48.60
2749;DHT22;1382;52.142;11.618;2024-03-06T14:15:24;16.90;46.30
2749;DHT22;1382;52.142;11.618;2024-03-06T14:17:54;16.90;48.80
2749;DHT22;1382;52.142;11.618;2024-03-06T14:20:24;17.00;49.40
2749;DHT22;1382;52.142;11.618;2024-03-06T14:22:51;16.90;49.10
2749;DHT22;1382;52.142;11.618;2024-03-06T14:25:28;16.90;47.80
2749;DHT22;1382;52.142;11.618;2024-03-06T14:27:57;16.90;46.10
2749;DHT22;1382;52.142;11.618;2024-03-06T14:30:31;16.90;45.70
2749;DHT22;1382;52.142;11.618;2024-03-06T14:33:01;16.70;48.40
2749;DHT22;1382;52.142;11.618;2024-03-06T14:35:42;16.80;48.70
2749;DHT22;1382;52.142;11.618;2024-03-06T14:38:10;16.80;49.10
2749;DHT22;1382;52.142;11.618;2024-03-06T14:40:43;16.90;49.40
2749;DHT22;1382;52.142;11.618;2024-03-06T14:43:10;16.90;47.90
2749;DHT22;1382;52.142;11.618;2024-03-06T14:45:37;16.90;49.00
2749;DHT22;1382;52.142;11.618;2024-03-06T14:48:05;16.90;48.60
2749;DHT22;1382;52.142;11.618;2024-03-06T14:50:32;16.90;49.00
2749;DHT22;1382;52.142;11.618;2024-03-06T14:52:58;16.90;47.20
2749;DHT22;1382;52.142;11.618;2024-03-06T14:55:25;17.00;48.70
2749;DHT22;1382;52.142;11.618;2024-03-06T14:57:54;16.90;48.70
2749;DHT22;1382;52.142;11.618;2024-03-06T15:00:22;17.10;48.50
2749;DHT22;1382;52.142;11.618;2024-03-06T15:02:51;17.00;48.80
2749;DHT22;1382;52.142;11.618;2024-03-06T15:05:19;16.90;48.40
2749;DHT22;1382;52.142;11.618;2024-03-06T15:07:51;17.10;48.30
2749;DHT22;1382;52.142;11.618;2024-03-06T15:10:18;17.10;47.50
2749;DHT22;1382;52.142;11.618;2024-03-06T15:12:46;17.00;47.90
2749;DHT22;1382;52.142;11.618;2024-03-06T15:15:15;17.00;47.00
2749;DHT22;1382;52.142;11.618;2024-03-06T15:17:42;16.90;45.90
2749;DHT22;1382;52.142;11.618;2024-03-06T15:20:10;16.90;47.10
2749;DHT22;1382;52.142;11.618;2024-03-06T15:22:37;17.00;47.60
2749;DHT22;1382;52.142;11.618;2024-03-06T15:25:04;16.90;47.60
2749;DHT22;1382;52.142;11.618;2024-03-06T15:27:32;16.80;47.30
2749;DHT22;1382;52.142;11.618;2024-03-06T15:29:59;16.90;45.80
2749;DHT22;1382;52.142;11.618;2024-03-06T15:32:29;16.90;47.00
2749;DHT22;1382;52.142;11.618;2024-03-06T15:34:58;16.80;46.90
2749;DHT22;1382;52.142;11.618;2024-03-06T15:37:25;16.80;46.80
2749;DHT22;1382;52.142;11.618;2024-03-06T15:39:52;16.70;46.90
2749;DHT22;1382;52.142;11.618;2024-03-06T15:42:20;16.70;47.30
2749;DHT22;1382;52.142;11.618;2024-03-06T15:44:53;16.70;47.20
2749;DHT22;1382;52.142;11.618;2024-03-06T15:47:20;16.60;46.90
2749;DHT22;1382;52.142;11.618;2024-03-06T15:49:50;16.70;47.60
2749;DHT22;1382;52.142;11.618;2024-03-06T15:52:22;16.50;45.90
2749;DHT22;1382;52.142;11.618;2024-03-06T15:55:07;16.50;47.00
2749;DHT22;1382;52.142;11.618;2024-03-06T15:57:35;16.40;47.70
2749;DHT22;1382;52.142;11.618;2024-03-06T16:00:06;16.40;47.60
2749;DHT22;1382;52.142;11.618;2024-03-06T16:02:33;16.30;47.60
2749;DHT22;1382;52.142;11.618;2024-03-06T16:05:01;16.20;47.20
2749;DHT22;1382;52.142;11.618;2024-03-06T16:07:28;16.20;47.20
2749;DHT22;1382;52.142;11.618;2024-03-06T16:09:55;16.10;47.30
2749;DHT22;1382;52.142;11.618;2024-03-06T16:12:22;16.10;47.00
2749;DHT22;1382;52.142;11.618;2024-03-06T16:14:49;16.00;47.10
2749;DHT22;1382;52.142;11.618;2024-03-06T16:17:15;15.90;47.00
2749;DHT22;1382;52.142;11.618;2024-03-06T16:19:42;15.90;47.20
2749;DHT22;1382;52.142;11.618;2024-03-06T16:22:14;15.80;46.90
2749;DHT22;1382;52.142;11.618;2024-03-06T16:24:41;15.60;43.70
2749;DHT22;1382;52.142;11.618;2024-03-06T16:27:08;15.40;43.20
2749;DHT22;1382;52.142;11.618;2024-03-06T16:29:39;15.20;43.10
2749;DHT22;1382;52.142;11.618;2024-03-06T16:32:09;15.00;42.80
2749;DHT22;1382;52.142;11.618;2024-03-06T16:34:36;14.80;42.70
2749;DHT22;1382;52.142;11.618;2024-03-06T16:37:06;14.60;43.40
2749;DHT22;1382;52.142;11.618;2024-03-06T16:39:44;14.40;43.00
2749;DHT22;1382;52.142;11.618;2024-03-06T16:42:13;14.30;43.00
2749;DHT22;1382;52.142;11.618;2024-03-06T16:45:08;14.10;44.10
2749;DHT22;1382;52.142;11.618;2024-03-06T16:51:17;13.70;43.70
2749;DHT22;1382;52.142;11.618;2024-03-06T16:53:44;13.60;43.80
2749;DHT22;1382;52.142;11.618;2024-03-06T16:56:13;13.50;44.20
2749;DHT22;1382;52.142;11.618;2024-03-06T16:58:40;13.40;44.40
2749;DHT22;1382;52.142;11.618;2024-03-06T17:01:07;13.30;44.60
2749;DHT22;1382;52.142;11.618;2024-03-06T17:03:34;13.30;44.20
2749;DHT22;1382;52.142;11.618;2024-03-06T17:06:01;13.30;44.10
2749;DHT22;1382;52.142;11.618;2024-03-06T17:08:28;13.00;44.10
2749;DHT22;1382;52.142;11.618;2024-03-06T17:10:55;13.00;44.30
2749;DHT22;1382;52.142;11.618;2024-03-06T17:13:23;12.80;44.40
2749;DHT22;1382;52.142;11.618;2024-03-06T17:15:50;12.70;44.30
2749;DHT22;1382;52.142;11.618;2024-03-06T17:18:17;12.60;44.10
2749;DHT22;1382;52.142;11.618;2024-03-06T17:20:46;12.60;44.80
2749;DHT22;1382;52.142;11.618;2024-03-06T17:23:13;12.50;45.40
2749;DHT22;1382;52.142;11.618;2024-03-06T17:25:40;12.70;46.00
2749;DHT22;1382;52.142;11.618;2024-03-06T17:28:07;12.50;46.20
2749;DHT22;1382;52.142;11.618;2024-03-06T17:30:35;12.40;46.30
2749;DHT22;1382;52.142;11.618;2024-03-06T17:33:02;12.40;46.50
2749;DHT22;1382;52.142;11.618;2024-03-06T17:35:30;12.40;46.70
2749;DHT22;1382;52.142;11.618;2024-03-06T17:37:56;12.40;46.90
2749;DHT22;1382;52.142;11.618;2024-03-06T17:40:23;12.30;46.90
2749;DHT22;1382;52.142;11.618;2024-03-06T17:42:50;12.30;47.00
2749;DHT22;1382;52.142;11.618;2024-03-06T17:45:17;12.20;47.10
2749;DHT22;1382;52.142;11.618;2024-03-06T17:47:45;12.20;47.30
2749;DHT22;1382;52.142;11.618;2024-03-06T17:50:12;12.30;47.50
2749;DHT22;1382;52.142;11.618;2024-03-06T17:52:39;12.20;47.60
2749;DHT22;1382;52.142;11.618;2024-03-06T17:55:07;12.10;47.60
2749;DHT22;1382;52.142;11.618;2024-03-06T17:57:34;12.10;47.70
2749;DHT22;1382;52.142;11.618;2024-03-06T18:00:01;12.10;47.90
2749;DHT22;1382;52.142;11.618;2024-03-06T18:02:27;12.10;48.00
2749;DHT22;1382;52.142;11.618;2024-03-06T18:04:56;12.10;48.00
2749;DHT22;1382;52.142;11.618;2024-03-06T18:07:23;12.00;47.80
2749;DHT22;1382;52.142;11.618;2024-03-06T18:09:50;11.90;47.90
2749;DHT22;1382;52.142;11.618;2024-03-06T18:12:16;12.00;48.10
2749;DHT22;1382;52.142;11.618;2024-03-06T18:14:43;12.00;48.20
2749;DHT22;1382;52.142;11.618;2024-03-06T18:17:10;11.80;48.20
2749;DHT22;1382;52.142;11.618;2024-03-06T18:19:37;11.80;48.40
2749;DHT22;1382;52.142;11.618;2024-03-06T18:22:05;11.70;48.30
2749;DHT22;1382;52.142;11.618;2024-03-06T18:24:32;11.70;48.50
2749;DHT22;1382;52.142;11.618;2024-03-06T18:26:59;11.60;48.60
2749;DHT22;1382;52.142;11.618;2024-03-06T18:29:26;11.60;48.70
2749;DHT22;1382;52.142;11.618;2024-03-06T18:31:53;11.50;48.80
2749;DHT22;1382;52.142;11.618;2024-03-06T18:34:20;11.50;48.90
2749;DHT22;1382;52.142;11.618;2024-03-06T18:36:46;11.40;48.80
2749;DHT22;1382;52.142;11.618;2024-03-06T18:39:15;11.40;49.00
2749;DHT22;1382;52.142;11.618;2024-03-06T18:41:42;11.40;49.10
2749;DHT22;1382;52.142;11.618;2024-03-06T18:44:09;11.40;49.20
2749;DHT22;1382;52.142;11.618;2024-03-06T18:46:37;11.20;49.10
2749;DHT22;1382;52.142;11.618;2024-03-06T18:49:09;11.20;49.10
2749;DHT22;1382;52.142;11.618;2024-03-06T18:51:35;11.10;49.20
2749;DHT22;1382;52.142;11.618;2024-03-06T18:54:02;11.10;49.30
2749;DHT22;1382;52.142;11.618;2024-03-06T18:56:31;11.10;49.40
2749;DHT22;1382;52.142;11.618;2024-03-06T18:58:58;11.00;49.40
2749;DHT22;1382;52.142;11.618;2024-03-06T19:01:24;11.00;49.50
2749;DHT22;1382;52.142;11.618;2024-03-06T19:03:51;10.90;49.60
2749;DHT22;1382;52.142;11.618;2024-03-06T19:06:18;10.90;49.70
2749;DHT22;1382;52.142;11.618;2024-03-06T19:08:45;10.80;49.70
2749;DHT22;1382;52.142;11.618;2024-03-06T19:11:12;10.80;49.80
2749;DHT22;1382;52.142;11.618;2024-03-06T19:13:40;10.80;49.90